sensor_id;sensor_type;location;lat;lon;timestamp;noise_LAeq;noise_LA_min;noise_LA_max;noise_LA01;noise_LA95
37833;Laerm;23678;48.778;9.160;2023-03-01T00:02:22;37.12;31.68;39.92;;
37833;Laerm;23678;48.778;9.160;2023-03-01T00:04:53;37.28;31.68;40.33;;
37833;Laerm;23678;48.778;9.160;2023-03-01T00:07:18;37.25;32.00;40.53;;
37833;Laerm;23678;48.778;9.160;2023-03-01T00:09:44;37.04;31.68;39.81;;
37833;Laerm;23678;48.778;9.160;2023-03-01T00:12:11;37.05;31.68;39.81;;
37833;Laerm;23678;48.778;9.160;2023-03-01T00:14:36;37.12;32.93;40.13;;
37833;Laerm;23678;48.778;9.160;2023-03-01T00:17:02;37.12;30.89;40.23;;
37833;Laerm;23678;48.778;9.160;2023-03-01T00:19:27;37.09;32.35;40.03;;
37833;Laerm;23678;48.778;9.160;2023-03-01T00:21:52;37.00;29.92;40.03;;
37833;Laerm;23678;48.778;9.160;2023-03-01T00:24:17;37.12;31.68;40.53;;
37833;Laerm;23678;48.778;9.160;2023-03-01T00:26:43;36.98;31.68;39.70;;
37833;Laerm;23678;48.778;9.160;2023-03-01T00:29:08;36.96;30.89;40.13;;
37833;Laerm;23678;48.778;9.160;2023-03-01T00:31:34;37.09;31.68;40.23;;
37833;Laerm;23678;48.778;9.160;2023-03-01T00:34:01;37.11;31.68;40.53;;
37833;Laerm;23678;48.778;9.160;2023-03-01T00:36:28;37.12;31.68;40.13;;
37833;Laerm;23678;48.778;9.160;2023-03-01T00:38:54;37.06;30.89;39.92;;
37833;Laerm;23678;48.778;9.160;2023-03-01T00:41:21;36.99;31.68;39.81;;
37833;Laerm;23678;48.778;9.160;2023-03-01T00:43:48;37.03;31.68;39.81;;
37833;Laerm;23678;48.778;9.160;2023-03-01T00:46:15;37.03;32.35;39.58;;
37833;Laerm;23678;48.778;9.160;2023-03-01T00:48:41;36.98;30.89;39.70;;
37833;Laerm;23678;48.778;9.160;2023-03-01T00:51:14;37.12;30.89;40.27;;
37833;Laerm;23678;48.778;9.160;2023-03-01T00:53:39;37.14;32.35;40.13;;
37833;Laerm;23678;48.778;9.160;2023-03-01T00:56:06;37.82;31.68;47.40;;
37833;Laerm;23678;48.778;9.160;2023-03-01T00:58:31;37.21;29.92;43.19;;
37833;Laerm;23678;48.778;9.160;2023-03-01T01:00:57;37.01;31.68;40.03;;
37833;Laerm;23678;48.778;9.160;2023-03-01T01:03:22;36.96;29.92;39.70;;
37833;Laerm;23678;48.778;9.160;2023-03-01T01:05:50;37.07;31.68;39.70;;
37833;Laerm;23678;48.778;9.160;2023-03-01T01:08:15;37.07;30.89;39.70;;
37833;Laerm;23678;48.778;9.160;2023-03-01T01:10:42;37.09;31.68;39.70;;
37833;Laerm;23678;48.778;9.160;2023-03-01T01:13:08;37.17;31.68;40.03;;
37833;Laerm;23678;48.778;9.160;2023-03-01T01:15:34;37.96;31.68;48.02;;
37833;Laerm;23678;48.778;9.160;2023-03-01T01:17:59;37.38;32.93;41.96;;
37833;Laerm;23678;48.778;9.160;2023-03-01T01:20:25;38.08;32.35;43.81;;
37833;Laerm;23678;48.778;9.160;2023-03-01T01:22:50;37.06;31.68;39.46;;
37833;Laerm;23678;48.778;9.160;2023-03-01T01:25:16;37.13;30.89;39.81;;
37833;Laerm;23678;48.778;9.160;2023-03-01T01:27:41;37.06;31.68;39.92;;
37833;Laerm;23678;48.778;9.160;2023-03-01T01:30:07;37.10;30.89;39.92;;
37833;Laerm;23678;48.778;9.160;2023-03-01T01:32:32;37.13;32.93;39.81;;
37833;Laerm;23678;48.778;9.160;2023-03-01T01:34:58;37.17;32.35;39.92;;
37833;Laerm;23678;48.778;9.160;2023-03-01T01:37:23;37.17;31.68;40.13;;
37833;Laerm;23678;48.778;9.160;2023-03-01T01:39:59;37.06;31.68;39.92;;
37833;Laerm;23678;48.778;9.160;2023-03-01T01:42:25;37.18;31.68;40.98;;
37833;Laerm;23678;48.778;9.160;2023-03-01T01:47:35;37.11;31.68;39.81;;
37833;Laerm;23678;48.778;9.160;2023-03-01T01:50:00;37.11;32.35;40.03;;
37833;Laerm;23678;48.778;9.160;2023-03-01T01:52:31;37.08;28.67;40.03;;
37833;Laerm;23678;48.778;9.160;2023-03-01T01:55:02;37.16;31.68;40.80;;
37833;Laerm;23678;48.778;9.160;2023-03-01T02:00:00;37.09;29.92;39.81;;
37833;Laerm;23678;48.778;9.160;2023-03-01T02:02:27;37.07;32.35;39.81;;
37833;Laerm;23678;48.778;9.160;2023-03-01T02:04:53;38.72;31.68;49.44;;
37833;Laerm;23678;48.778;9.160;2023-03-01T02:07:20;37.19;30.89;40.62;;
37833;Laerm;23678;48.778;9.160;2023-03-01T02:09:47;37.21;31.68;40.43;;
37833;Laerm;23678;48.778;9.160;2023-03-01T02:12:14;37.12;30.89;39.92;;
37833;Laerm;23678;48.778;9.160;2023-03-01T02:14:41;37.12;32.35;40.03;;
37833;Laerm;23678;48.778;9.160;2023-03-01T02:17:06;37.15;29.92;40.27;;
37833;Laerm;23678;48.778;9.160;2023-03-01T02:22:03;38.18;31.68;43.77;;
37833;Laerm;23678;48.778;9.160;2023-03-01T02:24:35;37.41;31.68;41.14;;
37833;Laerm;23678;48.778;9.160;2023-03-01T02:27:05;37.02;31.33;39.92;;
37833;Laerm;23678;48.778;9.160;2023-03-01T02:29:30;36.99;31.68;40.23;;
37833;Laerm;23678;48.778;9.160;2023-03-01T02:31:56;38.83;32.35;50.89;;
37833;Laerm;23678;48.778;9.160;2023-03-01T02:34:24;37.07;30.89;40.23;;
37833;Laerm;23678;48.778;9.160;2023-03-01T02:36:59;36.99;32.35;39.70;;
37833;Laerm;23678;48.778;9.160;2023-03-01T02:39:30;36.98;30.54;39.70;;
37833;Laerm;23678;48.778;9.160;2023-03-01T02:41:56;36.99;29.92;40.13;;
37833;Laerm;23678;48.778;9.160;2023-03-01T02:44:23;37.10;31.68;40.03;;
37833;Laerm;23678;48.778;9.160;2023-03-01T02:46:52;37.06;32.35;39.81;;
37833;Laerm;23678;48.778;9.160;2023-03-01T02:54:24;37.11;30.89;40.03;;
37833;Laerm;23678;48.778;9.160;2023-03-01T02:56:51;37.15;30.89;42.53;;
37833;Laerm;23678;48.778;9.160;2023-03-01T02:59:18;38.36;30.89;47.61;;
37833;Laerm;23678;48.778;9.160;2023-03-01T03:01:44;37.16;31.68;42.47;;
37833;Laerm;23678;48.778;9.160;2023-03-01T03:04:11;37.06;32.93;40.13;;
37833;Laerm;23678;48.778;9.160;2023-03-01T03:06:36;37.10;31.68;39.92;;
37833;Laerm;23678;48.778;9.160;2023-03-01T03:09:02;37.01;31.68;39.70;;
37833;Laerm;23678;48.778;9.160;2023-03-01T03:11:28;37.19;28.67;40.62;;
37833;Laerm;23678;48.778;9.160;2023-03-01T03:13:54;37.13;31.68;40.13;;
37833;Laerm;23678;48.778;9.160;2023-03-01T03:16:19;37.28;30.89;40.23;;
37833;Laerm;23678;48.778;9.160;2023-03-01T03:18:45;37.07;31.68;40.13;;
37833;Laerm;23678;48.778;9.160;2023-03-01T03:21:11;37.27;31.68;41.30;;
37833;Laerm;23678;48.778;9.160;2023-03-01T03:23:36;38.19;32.35;42.29;;
37833;Laerm;23678;48.778;9.160;2023-03-01T03:26:02;37.12;31.68;39.81;;
37833;Laerm;23678;48.778;9.160;2023-03-01T03:28:32;37.20;30.89;40.53;;
37833;Laerm;23678;48.778;9.160;2023-03-01T03:30:58;38.32;31.68;42.47;;
37833;Laerm;23678;48.778;9.160;2023-03-01T03:33:28;37.14;31.68;40.13;;
37833;Laerm;23678;48.778;9.160;2023-03-01T03:35:54;37.30;30.89;40.43;;
37833;Laerm;23678;48.778;9.160;2023-03-01T03:38:19;37.44;29.92;41.06;;
37833;Laerm;23678;48.778;9.160;2023-03-01T03:40:52;37.24;30.89;40.98;;
37833;Laerm;23678;48.778;9.160;2023-03-01T03:43:26;37.08;30.89;41.06;;
37833;Laerm;23678;48.778;9.160;2023-03-01T03:45:51;37.39;31.68;41.46;;
37833;Laerm;23678;48.778;9.160;2023-03-01T03:48:17;38.54;33.44;48.13;;
37833;Laerm;23678;48.778;9.160;2023-03-01T03:50:46;37.22;31.68;40.13;;
37833;Laerm;23678;48.778;9.160;2023-03-01T03:53:12;37.19;32.35;40.13;;
37833;Laerm;23678;48.778;9.160;2023-03-01T03:55:38;37.30;30.89;40.13;;
37833;Laerm;23678;48.778;9.160;2023-03-01T03:58:07;38.86;31.68;50.29;;
37833;Laerm;23678;48.778;9.160;2023-03-01T04:00:43;37.36;30.89;41.75;;
37833;Laerm;23678;48.778;9.160;2023-03-01T04:03:09;37.34;31.33;41.61;;
37833;Laerm;23678;48.778;9.160;2023-03-01T04:05:35;37.21;32.00;39.92;;
37833;Laerm;23678;48.778;9.160;2023-03-01T04:08:00;37.31;32.35;40.23;;
37833;Laerm;23678;48.778;9.160;2023-03-01T04:10:45;37.61;29.92;40.89;;
37833;Laerm;23678;48.778;9.160;2023-03-01T04:13:12;37.90;32.35;51.59;;
37833;Laerm;23678;48.778;9.160;2023-03-01T04:15:37;39.88;36.91;53.74;;
37833;Laerm;23678;48.778;9.160;2023-03-01T04:18:03;38.75;32.35;49.98;;
37833;Laerm;23678;48.778;9.160;2023-03-01T04:20:30;39.25;32.35;50.95;;
37833;Laerm;23678;48.778;9.160;2023-03-01T04:23:03;40.71;31.68;55.31;;
37833;Laerm;23678;48.778;9.160;2023-03-01T04:25:38;37.76;31.68;42.41;;
37833;Laerm;23678;48.778;9.160;2023-03-01T04:28:04;37.51;32.35;40.13;;
37833;Laerm;23678;48.778;9.160;2023-03-01T04:30:29;37.95;32.93;42.93;;
37833;Laerm;23678;48.778;9.160;2023-03-01T04:33:01;37.84;32.35;41.89;;
37833;Laerm;23678;48.778;9.160;2023-03-01T04:35:26;37.61;32.35;40.98;;
37833;Laerm;23678;48.778;9.160;2023-03-01T04:37:52;38.43;32.35;42.09;;
37833;Laerm;23678;48.778;9.160;2023-03-01T04:40:18;37.88;32.35;42.98;;
37833;Laerm;23678;48.778;9.160;2023-03-01T04:42:43;37.89;32.35;42.64;;
37833;Laerm;23678;48.778;9.160;2023-03-01T04:45:08;37.58;31.68;41.14;;
37833;Laerm;23678;48.778;9.160;2023-03-01T04:47:41;39.10;32.93;52.65;;
37833;Laerm;23678;48.778;9.160;2023-03-01T04:50:08;37.83;32.93;41.61;;
37833;Laerm;23678;48.778;9.160;2023-03-01T04:52:33;37.83;31.68;40.89;;
37833;Laerm;23678;48.778;9.160;2023-03-01T04:54:59;39.83;32.35;53.37;;
37833;Laerm;23678;48.778;9.160;2023-03-01T04:57:24;39.58;32.35;48.10;;
37833;Laerm;23678;48.778;9.160;2023-03-01T04:59:49;38.36;32.93;43.94;;
37833;Laerm;23678;48.778;9.160;2023-03-01T05:02:15;37.72;32.35;41.46;;
37833;Laerm;23678;48.778;9.160;2023-03-01T05:04:40;37.94;33.44;41.89;;
37833;Laerm;23678;48.778;9.160;2023-03-01T05:07:05;37.83;32.93;40.53;;
37833;Laerm;23678;48.778;9.160;2023-03-01T05:09:31;40.26;32.35;54.70;;
37833;Laerm;23678;48.778;9.160;2023-03-01T05:11:56;39.28;30.54;50.41;;
37833;Laerm;23678;48.778;9.160;2023-03-01T05:14:21;38.36;33.90;41.75;;
37833;Laerm;23678;48.778;9.160;2023-03-01T05:16:47;38.27;32.93;44.73;;
37833;Laerm;23678;48.778;9.160;2023-03-01T05:19:13;38.27;33.90;41.68;;
37833;Laerm;23678;48.778;9.160;2023-03-01T05:21:40;39.01;33.90;49.18;;
37833;Laerm;23678;48.778;9.160;2023-03-01T05:24:26;38.72;32.35;47.50;;
37833;Laerm;23678;48.778;9.160;2023-03-01T05:27:10;39.73;33.44;47.88;;
37833;Laerm;23678;48.778;9.160;2023-03-01T05:29:39;38.64;33.44;44.66;;
37833;Laerm;23678;48.778;9.160;2023-03-01T05:32:05;40.24;34.34;45.43;;
37833;Laerm;23678;48.778;9.160;2023-03-01T05:34:34;40.87;33.90;53.82;;
37833;Laerm;23678;48.778;9.160;2023-03-01T05:37:00;40.53;33.90;49.97;;
37833;Laerm;23678;48.778;9.160;2023-03-01T05:39:26;39.91;33.44;52.84;;
37833;Laerm;23678;48.778;9.160;2023-03-01T05:41:52;39.81;34.31;48.24;;
37833;Laerm;23678;48.778;9.160;2023-03-01T05:44:18;40.60;33.90;48.36;;
37833;Laerm;23678;48.778;9.160;2023-03-01T05:46:43;40.05;34.31;47.74;;
37833;Laerm;23678;48.778;9.160;2023-03-01T05:49:10;38.74;33.44;52.80;;
37833;Laerm;23678;48.778;9.160;2023-03-01T05:51:35;38.72;33.44;47.00;;
37833;Laerm;23678;48.778;9.160;2023-03-01T05:54:00;40.20;34.69;51.92;;
37833;Laerm;23678;48.778;9.160;2023-03-01T05:56:26;38.68;33.90;44.23;;
37833;Laerm;23678;48.778;9.160;2023-03-01T05:58:51;39.88;33.90;48.63;;
37833;Laerm;23678;48.778;9.160;2023-03-01T06:01:16;39.23;33.90;49.10;;
37833;Laerm;23678;48.778;9.160;2023-03-01T06:03:42;39.48;34.31;50.10;;
37833;Laerm;23678;48.778;9.160;2023-03-01T06:06:07;39.63;34.69;47.16;;
37833;Laerm;23678;48.778;9.160;2023-03-01T06:08:33;40.38;35.36;48.16;;
37833;Laerm;23678;48.778;9.160;2023-03-01T06:10:58;38.49;34.31;42.29;;
37833;Laerm;23678;48.778;9.160;2023-03-01T06:13:23;40.82;34.31;53.83;;
37833;Laerm;23678;48.778;9.160;2023-03-01T06:15:49;41.31;33.90;55.59;;
37833;Laerm;23678;48.778;9.160;2023-03-01T06:18:14;41.33;33.90;48.57;;
37833;Laerm;23678;48.778;9.160;2023-03-01T06:20:51;42.26;36.20;55.29;;
37833;Laerm;23678;48.778;9.160;2023-03-01T06:23:17;39.17;32.93;44.39;;
37833;Laerm;23678;48.778;9.160;2023-03-01T06:25:42;41.44;35.66;50.09;;
37833;Laerm;23678;48.778;9.160;2023-03-01T06:28:07;39.58;33.44;48.07;;
37833;Laerm;23678;48.778;9.160;2023-03-01T06:30:33;41.92;34.69;54.18;;
37833;Laerm;23678;48.778;9.160;2023-03-01T06:32:58;40.32;35.36;45.89;;
37833;Laerm;23678;48.778;9.160;2023-03-01T06:35:26;42.08;35.66;54.74;;
37833;Laerm;23678;48.778;9.160;2023-03-01T06:37:54;41.43;34.31;55.04;;
37833;Laerm;23678;48.778;9.160;2023-03-01T06:40:20;40.33;34.31;50.88;;
37833;Laerm;23678;48.778;9.160;2023-03-01T06:42:47;39.27;35.04;44.15;;
37833;Laerm;23678;48.778;9.160;2023-03-01T06:45:14;41.68;35.04;53.70;;
37833;Laerm;23678;48.778;9.160;2023-03-01T06:47:39;40.64;34.69;55.48;;
37833;Laerm;23678;48.778;9.160;2023-03-01T06:50:05;41.45;35.04;56.20;;
37833;Laerm;23678;48.778;9.160;2023-03-01T06:52:30;41.17;35.66;47.93;;
37833;Laerm;23678;48.778;9.160;2023-03-01T06:54:56;42.36;39.08;53.34;;
37833;Laerm;23678;48.778;9.160;2023-03-01T06:57:21;43.21;39.34;58.17;;
37833;Laerm;23678;48.778;9.160;2023-03-01T06:59:47;44.21;39.58;62.55;;
37833;Laerm;23678;48.778;9.160;2023-03-01T07:02:13;43.37;40.03;54.84;;
37833;Laerm;23678;48.778;9.160;2023-03-01T07:04:38;42.79;40.03;52.26;;
37833;Laerm;23678;48.778;9.160;2023-03-01T07:07:04;43.28;39.92;52.23;;
37833;Laerm;23678;48.778;9.160;2023-03-01T07:09:29;42.01;39.92;47.50;;
37833;Laerm;23678;48.778;9.160;2023-03-01T07:11:56;43.24;39.68;63.79;;
37833;Laerm;23678;48.778;9.160;2023-03-01T07:14:21;44.14;39.92;54.00;;
37833;Laerm;23678;48.778;9.160;2023-03-01T07:16:49;42.19;39.92;51.78;;
37833;Laerm;23678;48.778;9.160;2023-03-01T07:19:14;43.18;39.92;52.80;;
37833;Laerm;23678;48.778;9.160;2023-03-01T07:21:40;42.24;39.08;49.46;;
37833;Laerm;23678;48.778;9.160;2023-03-01T07:24:06;44.49;38.67;53.30;;
37833;Laerm;23678;48.778;9.160;2023-03-01T07:26:32;45.68;36.45;60.50;;
37833;Laerm;23678;48.778;9.160;2023-03-01T07:28:58;44.90;36.20;53.15;;
37833;Laerm;23678;48.778;9.160;2023-03-01T07:31:24;45.43;36.69;59.57;;
37833;Laerm;23678;48.778;9.160;2023-03-01T07:33:49;45.59;37.32;52.42;;
37833;Laerm;23678;48.778;9.160;2023-03-01T07:36:14;55.57;41.75;66.89;;
37833;Laerm;23678;48.778;9.160;2023-03-01T07:38:39;47.69;36.69;62.40;;
37833;Laerm;23678;48.778;9.160;2023-03-01T07:41:05;45.21;34.69;53.74;;
37833;Laerm;23678;48.778;9.160;2023-03-01T07:43:31;44.10;35.04;69.98;;
37833;Laerm;23678;48.778;9.160;2023-03-01T07:46:00;45.50;37.12;69.13;;
37833;Laerm;23678;48.778;9.160;2023-03-01T07:48:25;44.53;36.91;52.06;;
37833;Laerm;23678;48.778;9.160;2023-03-01T07:50:51;40.93;35.94;51.86;;
37833;Laerm;23678;48.778;9.160;2023-03-01T07:53:16;43.91;35.66;52.24;;
37833;Laerm;23678;48.778;9.160;2023-03-01T07:55:41;43.42;34.69;50.01;;
37833;Laerm;23678;48.778;9.160;2023-03-01T07:58:07;40.77;35.04;52.45;;
37833;Laerm;23678;48.778;9.160;2023-03-01T08:00:32;43.75;34.69;54.33;;
37833;Laerm;23678;48.778;9.160;2023-03-01T08:03:01;45.61;35.94;55.97;;
37833;Laerm;23678;48.778;9.160;2023-03-01T08:05:27;44.64;36.20;51.84;;
37833;Laerm;23678;48.778;9.160;2023-03-01T08:07:52;44.06;35.36;52.29;;
37833;Laerm;23678;48.778;9.160;2023-03-01T08:10:18;40.46;34.31;45.14;;
37833;Laerm;23678;48.778;9.160;2023-03-01T08:12:43;39.75;33.90;48.32;;
37833;Laerm;23678;48.778;9.160;2023-03-01T08:15:09;38.58;32.93;46.64;;
37833;Laerm;23678;48.778;9.160;2023-03-01T08:17:34;41.26;33.90;52.15;;
37833;Laerm;23678;48.778;9.160;2023-03-01T08:20:00;39.64;34.31;46.82;;
37833;Laerm;23678;48.778;9.160;2023-03-01T08:22:25;40.77;33.44;48.12;;
37833;Laerm;23678;48.778;9.160;2023-03-01T08:24:50;38.72;33.90;47.08;;
37833;Laerm;23678;48.778;9.160;2023-03-01T08:27:16;40.96;34.69;55.41;;
37833;Laerm;23678;48.778;9.160;2023-03-01T08:29:42;39.68;33.90;48.05;;
37833;Laerm;23678;48.778;9.160;2023-03-01T08:32:07;38.87;33.90;43.58;;
37833;Laerm;23678;48.778;9.160;2023-03-01T08:34:32;40.53;35.04;50.07;;
37833;Laerm;23678;48.778;9.160;2023-03-01T08:37:00;44.63;33.44;62.10;;
37833;Laerm;23678;48.778;9.160;2023-03-01T08:39:26;46.07;36.91;67.96;;
37833;Laerm;23678;48.778;9.160;2023-03-01T08:41:52;39.41;33.44;44.39;;
37833;Laerm;23678;48.778;9.160;2023-03-01T08:44:17;40.31;33.90;49.75;;
37833;Laerm;23678;48.778;9.160;2023-03-01T08:46:43;39.01;33.90;52.85;;
37833;Laerm;23678;48.778;9.160;2023-03-01T08:49:10;40.61;33.90;52.22;;
37833;Laerm;23678;48.778;9.160;2023-03-01T08:51:36;38.86;33.90;45.72;;
37833;Laerm;23678;48.778;9.160;2023-03-01T08:54:04;40.12;35.04;51.22;;
37833;Laerm;23678;48.778;9.160;2023-03-01T08:56:30;39.25;35.04;43.99;;
37833;Laerm;23678;48.778;9.160;2023-03-01T08:58:55;42.33;34.31;56.96;;
37833;Laerm;23678;48.778;9.160;2023-03-01T09:01:21;40.19;34.31;53.68;;
37833;Laerm;23678;48.778;9.160;2023-03-01T09:03:46;39.66;35.36;45.72;;
37833;Laerm;23678;48.778;9.160;2023-03-01T09:06:11;42.36;35.36;57.47;;
37833;Laerm;23678;48.778;9.160;2023-03-01T09:08:38;39.93;35.36;53.22;;
37833;Laerm;23678;48.778;9.160;2023-03-01T09:11:04;44.22;35.66;52.55;;
37833;Laerm;23678;48.778;9.160;2023-03-01T09:13:30;43.99;34.69;51.42;;
37833;Laerm;23678;48.778;9.160;2023-03-01T09:16:00;44.89;38.95;59.16;;
37833;Laerm;23678;48.778;9.160;2023-03-01T09:18:26;45.65;41.38;54.16;;
37833;Laerm;23678;48.778;9.160;2023-03-01T09:20:53;45.55;41.22;55.89;;
37833;Laerm;23678;48.778;9.160;2023-03-01T09:23:20;43.75;37.70;58.93;;
37833;Laerm;23678;48.778;9.160;2023-03-01T09:25:46;45.36;37.32;72.20;;
37833;Laerm;23678;48.778;9.160;2023-03-01T09:28:11;56.72;39.46;75.47;;
37833;Laerm;23678;48.778;9.160;2023-03-01T09:30:49;45.74;38.37;67.08;;
37833;Laerm;23678;48.778;9.160;2023-03-01T09:33:23;50.55;39.46;69.52;;
37833;Laerm;23678;48.778;9.160;2023-03-01T09:35:49;45.88;38.37;64.28;;
37833;Laerm;23678;48.778;9.160;2023-03-01T09:38:15;45.83;40.18;65.60;;
37833;Laerm;23678;48.778;9.160;2023-03-01T09:40:43;44.34;40.33;52.15;;
37833;Laerm;23678;48.778;9.160;2023-03-01T09:45:51;45.80;39.58;61.98;;
37833;Laerm;23678;48.778;9.160;2023-03-01T09:48:23;43.92;38.21;54.31;;
37833;Laerm;23678;48.778;9.160;2023-03-01T09:50:50;44.65;37.88;53.21;;
37833;Laerm;23678;48.778;9.160;2023-03-01T09:53:17;45.70;39.35;60.07;;
37833;Laerm;23678;48.778;9.160;2023-03-01T09:58:25;44.55;39.92;51.42;;
37833;Laerm;23678;48.778;9.160;2023-03-01T10:00:53;43.60;38.37;52.60;;
37833;Laerm;23678;48.778;9.160;2023-03-01T10:03:42;45.07;37.12;56.63;;
37833;Laerm;23678;48.778;9.160;2023-03-01T10:06:18;46.54;39.46;61.46;;
37833;Laerm;23678;48.778;9.160;2023-03-01T10:08:55;49.06;44.19;56.54;;
37833;Laerm;23678;48.778;9.160;2023-03-01T10:11:22;51.19;43.72;59.59;;
37833;Laerm;23678;48.778;9.160;2023-03-01T10:14:03;44.20;38.21;49.98;;
37833;Laerm;23678;48.778;9.160;2023-03-01T10:16:51;44.35;38.81;52.13;;
37833;Laerm;23678;48.778;9.160;2023-03-01T10:22:05;42.93;38.18;59.35;;
37833;Laerm;23678;48.778;9.160;2023-03-01T10:24:36;46.28;39.21;58.19;;
37833;Laerm;23678;48.778;9.160;2023-03-01T10:27:04;45.34;42.41;58.54;;
37833;Laerm;23678;48.778;9.160;2023-03-01T10:30:02;44.76;39.92;63.97;;
37833;Laerm;23678;48.778;9.160;2023-03-01T10:32:31;41.72;33.44;55.02;;
37833;Laerm;23678;48.778;9.160;2023-03-01T10:34:56;39.16;33.44;48.81;;
37833;Laerm;23678;48.778;9.160;2023-03-01T10:37:22;42.65;35.36;56.89;;
37833;Laerm;23678;48.778;9.160;2023-03-01T10:42:32;44.22;37.32;55.55;;
37833;Laerm;23678;48.778;9.160;2023-03-01T10:44:59;45.70;35.04;49.15;;
37833;Laerm;23678;48.778;9.160;2023-03-01T10:47:39;48.83;45.11;56.01;;
37833;Laerm;23678;48.778;9.160;2023-03-01T10:50:05;45.58;36.69;60.76;;
37833;Laerm;23678;48.778;9.160;2023-03-01T10:52:32;41.64;34.31;54.54;;
37833;Laerm;23678;48.778;9.160;2023-03-01T10:55:21;45.67;42.16;64.36;;
37833;Laerm;23678;48.778;9.160;2023-03-01T10:57:46;45.03;41.46;56.31;;
37833;Laerm;23678;48.778;9.160;2023-03-01T11:02:42;44.14;34.69;55.44;;
37833;Laerm;23678;48.778;9.160;2023-03-01T11:07:48;38.93;33.90;43.77;;
37833;Laerm;23678;48.778;9.160;2023-03-01T11:10:22;39.55;33.90;49.56;;
37833;Laerm;23678;48.778;9.160;2023-03-01T11:12:47;39.18;34.31;45.51;;
37833;Laerm;23678;48.778;9.160;2023-03-01T11:15:22;39.96;32.35;47.98;;
37833;Laerm;23678;48.778;9.160;2023-03-01T11:17:48;39.52;33.90;50.85;;
37833;Laerm;23678;48.778;9.160;2023-03-01T11:20:31;39.99;33.44;49.78;;
37833;Laerm;23678;48.778;9.160;2023-03-01T11:22:58;39.51;32.93;49.56;;
37833;Laerm;23678;48.778;9.160;2023-03-01T11:25:31;39.95;33.90;46.52;;
37833;Laerm;23678;48.778;9.160;2023-03-01T11:27:58;40.63;33.90;50.08;;
37833;Laerm;23678;48.778;9.160;2023-03-01T11:30:28;40.88;32.35;52.69;;
37833;Laerm;23678;48.778;9.160;2023-03-01T11:35:34;41.73;32.35;54.16;;
37833;Laerm;23678;48.778;9.160;2023-03-01T11:40:33;41.71;33.90;54.96;;
37833;Laerm;23678;48.778;9.160;2023-03-01T11:43:15;44.08;33.90;58.05;;
37833;Laerm;23678;48.778;9.160;2023-03-01T11:45:47;45.13;32.93;59.54;;
37833;Laerm;23678;48.778;9.160;2023-03-01T11:57:01;46.09;42.41;58.02;;
37833;Laerm;23678;48.778;9.160;2023-03-01T12:07:10;46.40;40.98;55.04;;
37833;Laerm;23678;48.778;9.160;2023-03-01T12:14:54;43.26;35.36;52.70;;
37833;Laerm;23678;48.778;9.160;2023-03-01T12:17:24;42.19;35.31;51.52;;
37833;Laerm;23678;48.778;9.160;2023-03-01T12:19:56;45.04;35.04;63.34;;
37833;Laerm;23678;48.778;9.160;2023-03-01T12:22:31;54.89;39.58;82.25;;
37833;Laerm;23678;48.778;9.160;2023-03-01T12:35:45;46.53;41.22;60.37;;
37833;Laerm;23678;48.778;9.160;2023-03-01T12:48:24;53.13;34.31;63.05;;
37833;Laerm;23678;48.778;9.160;2023-03-01T12:50:52;57.62;52.53;64.96;;
37833;Laerm;23678;48.778;9.160;2023-03-01T12:55:46;57.54;51.88;62.28;;
37833;Laerm;23678;48.778;9.160;2023-03-01T13:03:22;57.13;50.86;64.51;;
37833;Laerm;23678;48.778;9.160;2023-03-01T13:08:48;41.29;32.93;60.55;;
37833;Laerm;23678;48.778;9.160;2023-03-01T13:11:19;39.91;32.93;50.85;;
37833;Laerm;23678;48.778;9.160;2023-03-01T13:13:45;45.92;33.90;50.84;;
37833;Laerm;23678;48.778;9.160;2023-03-01T13:18:56;39.77;32.93;57.18;;
37833;Laerm;23678;48.778;9.160;2023-03-01T13:21:30;43.51;32.93;54.67;;
37833;Laerm;23678;48.778;9.160;2023-03-01T13:23:56;46.54;43.46;56.27;;
37833;Laerm;23678;48.778;9.160;2023-03-01T13:26:22;47.21;42.82;61.76;;
37833;Laerm;23678;48.778;9.160;2023-03-01T13:28:49;45.02;36.45;60.18;;
37833;Laerm;23678;48.778;9.160;2023-03-01T13:33:47;46.81;40.62;51.62;;
37833;Laerm;23678;48.778;9.160;2023-03-01T13:44:11;47.06;44.03;52.20;;
37833;Laerm;23678;48.778;9.160;2023-03-01T13:46:37;49.68;43.86;78.71;;
37833;Laerm;23678;48.778;9.160;2023-03-01T13:49:03;47.24;44.35;53.37;;
37833;Laerm;23678;48.778;9.160;2023-03-01T13:51:28;47.66;41.38;60.53;;
37833;Laerm;23678;48.778;9.160;2023-03-01T13:53:55;41.95;35.36;50.49;;
37833;Laerm;23678;48.778;9.160;2023-03-01T13:56:21;53.18;37.32;62.13;;
37833;Laerm;23678;48.778;9.160;2023-03-01T13:58:59;53.24;47.20;61.37;;
37833;Laerm;23678;48.778;9.160;2023-03-01T14:01:26;54.52;47.70;60.78;;
37833;Laerm;23678;48.778;9.160;2023-03-01T14:03:52;54.54;48.45;59.97;;
37833;Laerm;23678;48.778;9.160;2023-03-01T14:06:25;55.37;48.28;61.91;;
37833;Laerm;23678;48.778;9.160;2023-03-01T14:08:52;45.94;37.52;59.62;;
37833;Laerm;23678;48.778;9.160;2023-03-01T14:16:31;41.13;33.44;56.06;;
37833;Laerm;23678;48.778;9.160;2023-03-01T14:21:33;42.77;35.36;54.74;;
37833;Laerm;23678;48.778;9.160;2023-03-01T14:24:00;43.11;35.04;56.86;;
37833;Laerm;23678;48.778;9.160;2023-03-01T14:26:25;40.31;32.35;55.50;;
37833;Laerm;23678;48.778;9.160;2023-03-01T14:28:51;45.57;33.90;64.52;;
37833;Laerm;23678;48.778;9.160;2023-03-01T14:31:36;44.79;38.05;54.81;;
37833;Laerm;23678;48.778;9.160;2023-03-01T14:34:03;44.33;39.21;57.08;;
37833;Laerm;23678;48.778;9.160;2023-03-01T14:36:29;44.11;38.95;59.16;;
37833;Laerm;23678;48.778;9.160;2023-03-01T14:38:55;44.27;36.69;56.30;;
37833;Laerm;23678;48.778;9.160;2023-03-01T14:41:24;43.11;34.69;54.00;;
37833;Laerm;23678;48.778;9.160;2023-03-01T14:43:51;42.91;36.77;48.83;;
37833;Laerm;23678;48.778;9.160;2023-03-01T14:46:38;43.50;40.80;53.58;;
37833;Laerm;23678;48.778;9.160;2023-03-01T14:49:06;47.52;35.04;73.83;;
37833;Laerm;23678;48.778;9.160;2023-03-01T14:51:38;44.68;36.45;60.05;;
37833;Laerm;23678;48.778;9.160;2023-03-01T14:54:10;45.43;35.94;61.12;;
37833;Laerm;23678;48.778;9.160;2023-03-01T14:56:44;44.11;35.04;57.41;;
37833;Laerm;23678;48.778;9.160;2023-03-01T14:59:10;43.78;35.66;63.84;;
37833;Laerm;23678;48.778;9.160;2023-03-01T15:01:36;44.66;34.69;58.62;;
37833;Laerm;23678;48.778;9.160;2023-03-01T15:04:01;44.56;32.35;59.32;;
37833;Laerm;23678;48.778;9.160;2023-03-01T15:06:27;40.45;35.04;46.73;;
37833;Laerm;23678;48.778;9.160;2023-03-01T15:08:54;41.53;33.44;54.92;;
37833;Laerm;23678;48.778;9.160;2023-03-01T15:11:31;42.25;33.44;56.65;;
37833;Laerm;23678;48.778;9.160;2023-03-01T15:13:57;40.98;34.31;52.16;;
37833;Laerm;23678;48.778;9.160;2023-03-01T15:16:26;41.47;33.90;53.61;;
37833;Laerm;23678;48.778;9.160;2023-03-01T15:19:05;42.88;35.04;62.53;;
37833;Laerm;23678;48.778;9.160;2023-03-01T15:26:45;42.07;33.90;54.91;;
37833;Laerm;23678;48.778;9.160;2023-03-01T15:29:16;42.19;34.69;52.90;;
37833;Laerm;23678;48.778;9.160;2023-03-01T15:31:42;44.36;34.69;59.50;;
37833;Laerm;23678;48.778;9.160;2023-03-01T15:34:19;42.65;32.35;56.09;;
37833;Laerm;23678;48.778;9.160;2023-03-01T15:36:46;42.33;32.93;55.75;;
37833;Laerm;23678;48.778;9.160;2023-03-01T15:41:49;39.55;32.93;51.47;;
37833;Laerm;23678;48.778;9.160;2023-03-01T15:44:24;41.57;35.36;53.18;;